KDLS/DLS METAR and TAF weather

Enter ICAO airport designator
Station Type Date Time Source
KDLS METAR 2019/08/22 15:53 UTC NOAA

KDLS 221553Z AUTO 31014G20KT 10SM CLR 18/11 A3000 RMK AO2 RAE25 SLP159 P0000 T01780111


Station Type Date Time Source
KDLS Decoded METAR 2019/08/22 15:53 UTC NOAA

Station name not available
Aug 22, 2019 - 11:53 AM EDT / 2019.08.22 1553 UTC
Wind: from the NW (310 degrees) at 16 MPH (14 KT) gusting to 23 MPH (20 KT):0
Visibility: 10 mile(s):0
Sky conditions: clear
Precipitation last hour: A trace
Temperature: 64.0 F (17.8 C)
Dew Point: 52.0 F (11.1 C)
Relative Humidity: 64%
Pressure (altimeter): 30 in. Hg (1015 hPa)
ob: KDLS 221553Z AUTO 31014G20KT 10SM CLR 18/11 A3000 RMK AO2 RAE25 SLP159 P0000 T01780111
cycle: 16

Station Type Date Time Source
KDLS TAF 2019/08/22 12:22 UTC NOAA

TAF KDLS 221120Z 2212/2312 29005G10KT P6SM FEW250
FM221500 31008G15KT P6SM SKC
FM221800 32015G25KT P6SM SKC
FM230600 31007KT P6SM SKC

Example: see airport list